Observations for ROME URBE IT-AFB, Italy (LIRU)

LIRU 201650Z VRB03KT 210V290 8000 NSC 12/06 Q1024   
LIRU 201550Z 26007KT CAVOK 14/05 Q1024  
LIRU 201450Z 25008KT CAVOK 15/05 Q1024  
LIRU 201350Z 34006KT 300V010 9999 FEW040 15/04 Q1024
LIRU 201250Z 03004KT CAVOK 14/03 Q1024  
LIRU 201150Z VRB02KT 280V080 CAVOK 14/05 Q1025  
LIRU 201050Z VRB03KT 280V120 8000 NSC 13/04 Q1025   
LIRU 200950Z 03004KT 350V080 5000 BR NSC 11/05 Q1025
LIRU 200921Z VRB02KT 300V070 5000 BR NSC 10/05 Q1025
LIRU 200850Z VRB01KT 4000 BR NSC 07/06 Q1025
LIRU 200750Z VRB01KT 250V110 3000 BR NSC 04/03 Q1025
LIRU 200700Z 00000KT 2000 BR NSC 01/01 Q1025